Data for 03/08/2018

Time Sea-Level Adjusted Pressure Absolute Pressure Temperature Relative Humidity Dew Point   
(mb) (inHg) (mb) (inHg) (C) (F) (%) (C) (F)
00:05 1017 30.03 846 24.98 0.8 33.5 44 -10.1 13.9
00:10 1017 30.03 846 24.98 0.9 33.6 44 -10 14.1
00:15 1017 30.03 846 24.98 0.9 33.6 45 -9.9 14.2
00:20 1017 30.03 846 24.98 0.9 33.5 45 -9.9 14.1
00:25 1017 30.03 846 24.98 0.8 33.5 44 -10.1 13.9
00:30 1017 30.03 846 24.98 0.8 33.4 45 -9.7 14.5
00:35 1017 30.03 846 24.98 0.5 32.9 46 -9.8 14.4
00:40 1017 30.03 846 24.98 0.2 32.3 47 -9.8 14.4
00:45 1017 30.03 846 24.98 0 32 48 -9.7 14.5
00:50 1017 30.03 846 24.98 -0.2 31.6 49 -9.8 14.4
00:55 1017 30.03 846 24.98 -0.3 31.4 49 -9.9 14.2
01:00 1017 30.03 846 24.98 -0.3 31.5 48 -10.1 13.8
01:05 1017 30.03 846 24.98 -0.3 31.4 48 -10.1 13.8
01:10 1017 30.03 846 24.98 -0.2 31.7 46 -10.5 13.2
01:15 1017 30.03 846 24.98 0.1 32.1 46 -10.2 13.7
01:20 1017 30.03 846 24.98 -0.1 31.9 47 -10.1 13.8
01:25 1017 30.03 846 24.98 -0.3 31.5 47 -10.2 13.7
01:30 1016 30 846 24.98 -0.4 31.3 48 -10.1 13.8
01:35 1016 30 846 24.98 -0.6 31 48 -10.3 13.4
01:40 1016 30 845 24.95 -0.7 30.8 49 -10.1 13.8
01:45 1016 30 845 24.95 -0.9 30.4 48 -10.4 13.2
01:50 1016 30 845 24.95 -0.9 30.5 49 -10.4 13.3
01:55 1016 30 845 24.95 -0.7 30.8 48 -10.4 13.2
02:00 1016 30 845 24.95 -0.7 30.7 48 -10.5 13
02:05 1016 30 845 24.95 -0.8 30.6 48 -10.4 13.2
02:10 1016 30 845 24.95 -0.7 30.7 47 -10.6 12.8
02:15 1016 30 845 24.95 -0.5 31.2 46 -10.6 12.9
02:20 1016 30 845 24.95 -0.4 31.3 45 -10.8 12.6
02:25 1016 30 845 24.95 -0.2 31.6 46 -10.6 13
02:30 1016 30 845 24.95 -0.4 31.4 47 -10.4 13.4
02:35 1016 30 845 24.95 -1 30.3 49 -10.4 13.2
02:40 1016 30 845 24.95 -1.4 29.6 49 -10.9 12.4
02:45 1016 30 845 24.95 -1.3 29.7 48 -10.9 12.3
02:50 1016 30 845 24.95 -0.7 30.8 45 -11.2 11.9
02:55 1016 30 845 24.95 -0.4 31.2 46 -10.7 12.7
03:00 1016 30 845 24.95 -0.2 31.6 43 -11.4 11.5
03:05 1016 30 845 24.95 0.3 32.5 42 -11.2 11.9
03:10 1016 30 845 24.95 0.3 32.6 42 -11 12.1
03:15 1016 30 845 24.95 -0.1 31.8 45 -10.7 12.7
03:20 1016 30 845 24.95 -0.8 30.5 47 -10.9 12.5
03:25 1016 30 845 24.95 -0.8 30.6 46 -10.9 12.4
03:30 1015 29.97 845 24.95 -0.9 30.4 47 -11 12.3
03:35 1015 29.97 845 24.95 -0.5 31.1 45 -11 12.2
03:40 1015 29.97 844 24.92 -0.8 30.5 48 -10.5 13.2
03:45 1015 29.97 844 24.92 -1.3 29.6 49 -10.8 12.5
03:50 1015 29.97 844 24.92 -1.2 29.8 47 -11.1 12
03:55 1015 29.97 844 24.92 -1.2 29.8 48 -10.8 12.6
04:00 1015 29.97 844 24.92 -1.5 29.3 49 -10.8 12.6
04:05 1015 29.97 844 24.92 -1.9 28.6 51 -10.7 12.7
04:10 1015 29.97 844 24.92 -2 28.4 51 -11 12.3
04:15 1015 29.97 844 24.92 -1.9 28.7 50 -11 12.2
04:20 1015 29.97 844 24.92 -1.6 29.2 49 -11 12.1
04:25 1015 29.97 844 24.92 -1.2 29.8 48 -11 12.2
04:30 1015 29.97 844 24.92 -1.3 29.7 49 -10.7 12.7
04:35 1015 29.97 844 24.92 -1.5 29.3 50 -10.7 12.7
04:40 1015 29.97 844 24.92 -1.3 29.6 48 -10.9 12.3
04:45 1015 29.97 844 24.92 -1 30.2 46 -11.2 11.9
04:50 1015 29.97 844 24.92 -0.7 30.7 46 -10.8 12.5
04:55 1015 29.97 844 24.92 -0.8 30.6 46 -11 12.2
05:00 1015 29.97 844 24.92 -0.8 30.5 46 -11.1 12
05:05 1015 29.97 844 24.92 -0.7 30.7 46 -10.9 12.4
05:10 1015 29.97 844 24.92 -0.9 30.5 46 -11 12.2
05:15 1015 29.97 844 24.92 -0.9 30.3 47 -10.9 12.3
05:20 1015 29.97 844 24.92 -1.1 30 47 -11 12.2
05:25 1015 29.97 844 24.92 -0.9 30.5 46 -11.1 12
05:30 1015 29.97 844 24.92 -0.7 30.7 46 -10.9 12.3
05:35 1015 29.97 844 24.92 -0.6 30.9 45 -11.1 12.1
05:40 1015 29.97 844 24.92 -0.3 31.4 45 -10.9 12.3
05:45 1015 29.97 844 24.92 -0.6 31 47 -10.6 13
05:50 1015 29.97 844 24.92 -0.7 30.7 48 -10.5 13.1
05:55 1015 29.97 844 24.92 -0.6 30.8 48 -10.4 13.3
06:00 1015 29.97 844 24.92 -1 30.2 49 -10.5 13.1
06:05 1015 29.97 844 24.92 -0.9 30.3 49 -10.4 13.2
06:10 1015 29.97 844 24.92 -0.7 30.7 47 -10.6 12.9
06:15 1015 29.97 844 24.92 -0.5 31.1 48 -10.2 13.6
06:20 1015 29.97 844 24.92 -0.4 31.3 47 -10.4 13.3
06:25 1015 29.97 844 24.92 -0.4 31.4 47 -10.5 13.2
06:30 1015 29.97 844 24.92 -0.4 31.2 48 -10.2 13.6
06:35 1014 29.94 844 24.92 -0.5 31.1 46 -10.7 12.8
06:40 1015 29.97 844 24.92 -0.5 31.1 47 -10.5 13.1
06:45 1015 29.97 844 24.92 -0.1 31.9 45 -10.6 13
06:50 1015 29.97 844 24.92 -0.3 31.5 49 -9.7 14.5
06:55 1014 29.94 844 24.92 -1.1 30 51 -10 14
07:00 1014 29.94 844 24.92 -1 30.2 49 -10.3 13.5
07:05 1014 29.94 844 24.92 -0.7 30.8 49 -10.1 13.8
07:10 1014 29.94 844 24.92 -0.8 30.6 50 -9.9 14.2
07:15 1014 29.94 844 24.92 -0.6 31 48 -10.3 13.4
07:20 1014 29.94 844 24.92 -0.2 31.7 47 -10.2 13.6
07:25 1015 29.97 844 24.92 0 32.1 45 -10.4 13.3
07:30 1015 29.97 844 24.92 0.3 32.6 48 -9.5 14.9
07:35 1015 29.97 844 24.92 0.6 33 48 -9.2 15.5
07:40 1015 29.97 844 24.92 0.7 33.3 50 -8.7 16.4
07:45 1015 29.97 844 24.92 0.8 33.4 52 -8.1 17.4
07:50 1015 29.97 844 24.92 0.6 33 51 -8.3 17
07:55 1015 29.97 844 24.92 0.1 32.2 54 -8.2 17.3
08:00 1014 29.94 844 24.92 0.1 32.3 48 -9.7 14.5
08:05 1014 29.94 843 24.89 0.9 33.6 46 -9.5 15
08:10 1015 29.97 844 24.92 1.2 34.1 47 -9.1 15.7
08:15 1014 29.94 844 24.92 1.5 34.7 48 -8.4 16.9
08:20 1014 29.94 843 24.89 1.7 35 45 -9 15.8
08:25 1014 29.94 843 24.89 1.6 34.9 46 -8.9 16.1
08:30 1014 29.94 843 24.89 2.1 35.7 44 -9 15.8
08:35 1014 29.94 843 24.89 2.5 36.6 41 -9.5 15
08:40 1014 29.94 843 24.89 2.3 36.2 42 -9.4 15.1
08:45 1014 29.94 843 24.89 2.3 36.1 42 -9.4 15
08:50 1014 29.94 843 24.89 2.8 37 41 -9.3 15.2
08:55 1014 29.94 843 24.89 3.1 37.6 39 -9.4 15.1
09:00 1014 29.94 843 24.89 3.2 37.8 39 -9.3 15.3
09:05 1014 29.94 843 24.89 3.3 37.9 41 -8.8 16.2
09:10 1014 29.94 843 24.89 3.6 38.5 38 -9.5 15
09:15 1014 29.94 843 24.89 4.2 39.6 37 -9.3 15.3
09:20 1014 29.94 843 24.89 4.7 40.5 38 -8.6 16.6
09:25 1013 29.91 843 24.89 5.1 41.1 38 -8.2 17.3
09:30 1013 29.91 843 24.89 5.3 41.5 37 -8.3 17
09:35 1013 29.91 843 24.89 5.4 41.7 37 -8.2 17.2
09:40 1013 29.91 843 24.89 5.6 42.2 36 -8.3 17.1
09:45 1013 29.91 843 24.89 5.7 42.2 38 -7.6 18.4
09:50 1013 29.91 843 24.89 5.4 41.7 36 -8.4 16.9
09:55 1013 29.91 842 24.86 5.4 41.7 39 -7.6 18.3
10:00 1013 29.91 843 24.89 4.8 40.7 38 -8.4 17
10:05 1013 29.91 842 24.86 4.8 40.7 38 -8.5 16.8
10:10 1013 29.91 842 24.86 5.2 41.4 37 -8.4 16.9
10:15 1013 29.91 842 24.86 5.5 42 34 -9 15.8
10:20 1013 29.91 842 24.86 5.7 42.3 36 -8.2 17.3
10:25 1013 29.91 842 24.86 6 42.7 33 -9 15.9
10:30 1013 29.91 842 24.86 6.1 43.1 34 -8.6 16.6
10:35 1013 29.91 842 24.86 5.4 41.8 41 -6.9 19.7
10:40 1013 29.91 842 24.86 5.1 41.2 40 -7.2 19
10:45 1013 29.91 842 24.86 5.3 41.5 39 -7.7 18.1
10:50 1013 29.91 842 24.86 5 41.1 38 -8.1 17.3
10:55 1013 29.91 842 24.86 5.5 41.9 37 -7.9 17.7
11:00 1013 29.91 842 24.86 5.6 42 37 -8.1 17.4
11:05 1013 29.91 842 24.86 5.9 42.6 37 -7.9 17.8
11:10 1013 29.91 842 24.86 6.3 43.3 35 -8 17.6
11:15 1013 29.91 842 24.86 6.7 44.1 33 -8.6 16.5
11:20 1013 29.91 842 24.86 6.8 44.2 33 -8.3 17.1
11:25 1013 29.91 842 24.86 6.5 43.8 35 -8 17.6
11:30 1013 29.91 842 24.86 6.5 43.7 34 -8.4 16.9
11:35 1013 29.91 842 24.86 6.7 44 33 -8.5 16.7
11:40 1013 29.91 842 24.86 6.8 44.2 33 -8.6 16.6
11:45 1013 29.91 842 24.86 6.9 44.5 32 -8.5 16.8
11:50 1013 29.91 842 24.86 6.9 44.5 35 -7.3 18.9
11:55 1013 29.91 842 24.86 6.5 43.7 39 -6.6 20.2
12:00 1013 29.91 842 24.86 5.7 42.3 40 -6.7 19.9
12:05 1012 29.88 842 24.86 6.1 43 37 -7.6 18.3
12:10 1012 29.88 841 24.83 6.6 43.9 37 -7.1 19.2
12:15 1012 29.88 841 24.83 6.4 43.6 37 -7 19.3
12:20 1012 29.88 841 24.83 6.4 43.5 36 -7.7 18.2
12:25 1012 29.88 841 24.83 6.7 44 36 -7.5 18.5
12:30 1012 29.88 841 24.83 6.8 44.2 36 -7.3 18.9
12:35 1012 29.88 841 24.83 7.3 45.1 35 -7.3 18.9
12:40 1012 29.88 841 24.83 7.8 46 34 -7 19.4
12:45 1012 29.88 841 24.83 8.1 46.5 34 -6.9 19.6
12:50 1012 29.88 841 24.83 8.2 46.7 34 -6.8 19.7
12:55 1012 29.88 841 24.83 8.3 47 33 -6.9 19.7
13:00 1012 29.88 841 24.83 8.5 47.3 34 -6.6 20.2
13:05 1012 29.88 841 24.83 8.3 46.9 35 -6.2 20.8
13:10 1012 29.88 841 24.83 8 46.4 36 -6.1 21
13:15 1012 29.88 841 24.83 7.8 46.1 36 -6.2 20.9
13:20 1012 29.88 841 24.83 7.7 45.8 38 -5.9 21.4
13:25 1012 29.88 841 24.83 7.6 45.7 36 -6.4 20.5
13:30 1012 29.88 841 24.83 7.4 45.2 39 -5.7 21.8
13:35 1012 29.88 841 24.83 7 44.6 40 -5.7 21.7
13:40 1012 29.88 841 24.83 6.9 44.3 41 -5.4 22.3
13:45 1012 29.88 841 24.83 6.8 44.2 41 -5.4 22.3
13:50 1012 29.88 841 24.83 6.7 44 43 -5 23
13:55 1012 29.88 841 24.83 6.5 43.6 44 -4.8 23.3
14:00 1012 29.88 841 24.83 6.3 43.4 46 -4.5 24
14:05 1011 29.85 841 24.83 6.3 43.3 44 -5.2 22.6
14:10 1011 29.85 841 24.83 6.3 43.3 44 -5 22.9
14:15 1012 29.88 841 24.83 6.4 43.5 42 -5.5 22.1
14:20 1012 29.88 841 24.83 6.4 43.6 42 -5.5 22.1
14:25 1012 29.88 841 24.83 6.4 43.6 43 -5.2 22.6
14:30 1012 29.88 841 24.83 6.3 43.4 43 -5.4 22.3
14:35 1012 29.88 841 24.83 6.2 43.2 42 -5.6 21.9
14:40 1011 29.85 841 24.83 6.2 43.1 43 -5.6 21.9
14:45 1011 29.85 841 24.83 6.2 43.2 41 -6.1 21
14:50 1011 29.85 841 24.83 6.3 43.4 41 -5.9 21.4
14:55 1011 29.85 841 24.83 6.4 43.4 38 -6.8 19.7
15:00 1011 29.85 841 24.83 6.4 43.6 39 -6.5 20.3
15:05 1011 29.85 841 24.83 6.5 43.6 38 -6.7 19.9
15:10 1011 29.85 840 24.81 6.7 44 37 -6.9 19.6
15:15 1011 29.85 840 24.81 6.8 44.3 38 -6.6 20.1
15:20 1011 29.85 840 24.81 7 44.7 37 -6.7 19.9
15:25 1011 29.85 840 24.81 7 44.7 38 -6.4 20.5
15:30 1011 29.85 840 24.81 7.2 45 37 -6.4 20.5
15:35 1011 29.85 840 24.81 7.1 44.7 38 -6.3 20.7
15:40 1011 29.85 840 24.81 7 44.6 37 -6.7 19.9
15:45 1011 29.85 840 24.81 7.3 45.1 37 -6.6 20.1
15:50 1011 29.85 840 24.81 7.8 46 37 -6.2 20.9
15:55 1011 29.85 841 24.83 7.6 45.7 37 -6.3 20.7
16:00 1011 29.85 841 24.83 7.5 45.4 38 -6 21.1
16:05 1011 29.85 841 24.83 7.7 45.8 37 -6.2 20.8
16:10 1011 29.85 841 24.83 8.4 47.1 34 -6.6 20.2
16:15 1011 29.85 841 24.83 8.3 46.9 36 -5.9 21.4
16:20 1012 29.88 841 24.83 8.4 47.1 37 -5.4 22.2
16:25 1012 29.88 841 24.83 8.4 47.1 37 -5.5 22.2
16:30 1012 29.88 841 24.83 8.5 47.4 37 -5.2 22.6
16:35 1012 29.88 841 24.83 8.4 47.1 37 -5.3 22.5
16:40 1012 29.88 841 24.83 8.1 46.6 39 -5 22.9
16:45 1012 29.88 841 24.83 7.7 45.9 40 -5.1 22.8
16:50 1011 29.85 841 24.83 7.3 45.2 38 -5.9 21.3
16:55 1011 29.85 841 24.83 7 44.7 40 -5.5 22
17:00 1011 29.85 841 24.83 7 44.7 39 -5.9 21.4
17:05 1011 29.85 841 24.83 6.8 44.2 41 -5.6 21.9
17:10 1011 29.85 841 24.83 6.6 43.9 42 -5.4 22.3
17:15 1012 29.88 841 24.83 6.3 43.4 41 -5.9 21.4
17:20 1012 29.88 841 24.83 6.3 43.3 39 -6.5 20.3
17:25 1011 29.85 841 24.83 6.3 43.3 40 -6.3 20.7
17:30 1011 29.85 841 24.83 6.1 42.9 42 -5.8 21.6
17:35 1012 29.88 841 24.83 5.8 42.4 43 -5.9 21.5
17:40 1012 29.88 841 24.83 5.6 42.1 44 -5.7 21.7
17:45 1012 29.88 841 24.83 5.5 41.9 44 -5.7 21.7
17:50 1012 29.88 841 24.83 5.5 41.8 44 -5.9 21.3
17:55 1012 29.88 841 24.83 5.5 41.8 44 -5.7 21.7
18:00 1012 29.88 841 24.83 5.4 41.8 45 -5.6 21.8
18:05 1012 29.88 841 24.83 5.4 41.7 44 -6 21.2
18:10 1012 29.88 841 24.83 5.4 41.7 44 -5.9 21.3
18:15 1012 29.88 841 24.83 5.3 41.6 43 -6.3 20.6
18:20 1012 29.88 841 24.83 5.3 41.5 44 -6 21.2
18:25 1012 29.88 841 24.83 5.2 41.4 44 -6.1 21.1
18:30 1012 29.88 841 24.83 5.2 41.4 44 -6.1 20.9
18:35 1012 29.88 841 24.83 5.2 41.4 43 -6.4 20.5
18:40 1012 29.88 841 24.83 5.3 41.5 43 -6.3 20.6
18:45 1012 29.88 841 24.83 5.2 41.4 43 -6.5 20.4
18:50 1012 29.88 841 24.83 5.1 41.2 43 -6.6 20.2
18:55 1012 29.88 841 24.83 5.1 41.1 43 -6.4 20.4
19:00 1012 29.88 841 24.83 5 41 43 -6.4 20.4
19:05 1012 29.88 841 24.83 4.9 40.8 44 -6.2 20.8
19:10 1012 29.88 841 24.83 4.9 40.7 45 -6.1 21
19:15 1012 29.88 841 24.83 4.7 40.5 45 -6.2 20.8
19:20 1012 29.88 841 24.83 4.6 40.2 45 -6.3 20.6
19:25 1012 29.88 841 24.83 4.5 40.1 46 -6.2 20.9
19:30 1012 29.88 841 24.83 4.4 39.9 46 -6.3 20.6
19:35 1012 29.88 841 24.83 4.4 39.9 46 -6.2 20.9
19:40 1012 29.88 841 24.83 4.5 40.1 45 -6.5 20.3
19:45 1012 29.88 841 24.83 4.6 40.2 44 -6.5 20.3
19:50 1012 29.88 841 24.83 4.6 40.2 43 -7 19.4
19:55 1012 29.88 841 24.83 4.6 40.3 43 -6.8 19.8
20:00 1012 29.88 841 24.83 4.6 40.3 43 -6.8 19.8
20:05 1012 29.88 841 24.83 4.6 40.3 42 -7.1 19.2
20:10 1012 29.88 841 24.83 4.7 40.4 43 -7 19.5
20:15 1012 29.88 841 24.83 4.8 40.6 41 -7.3 18.8
20:20 1012 29.88 841 24.83 4.8 40.6 41 -7.3 18.8
20:25 1012 29.88 841 24.83 4.8 40.6 40 -7.6 18.4
20:30 1012 29.88 841 24.83 4.9 40.9 39 -7.8 18
20:35 1012 29.88 841 24.83 5 41 39 -7.8 18
20:40 1011 29.85 841 24.83 5.1 41.2 38 -7.9 17.8
20:45 1012 29.88 841 24.83 5.1 41.2 39 -7.8 18
20:50 1012 29.88 841 24.83 5.1 41.2 39 -7.6 18.3
20:55 1011 29.85 841 24.83 5.1 41.1 40 -7.4 18.7
21:00 1011 29.85 841 24.83 5 41 39 -7.7 18.1
21:05 1012 29.88 841 24.83 5 41 39 -7.8 18
21:10 1012 29.88 841 24.83 5 40.9 41 -7.3 18.9
21:15 1012 29.88 841 24.83 4.8 40.6 40 -7.7 18.1
21:20 1012 29.88 841 24.83 4.8 40.6 41 -7.5 18.6
21:25 1012 29.88 841 24.83 4.6 40.3 41 -7.6 18.4
21:30 1011 29.85 841 24.83 4.6 40.3 40 -7.9 17.9
21:35 1012 29.88 841 24.83 4.7 40.5 40 -7.8 18
21:40 1012 29.88 841 24.83 4.7 40.4 41 -7.6 18.3
21:45 1012 29.88 841 24.83 4.5 40.2 41 -7.7 18.1
21:50 1011 29.85 841 24.83 4.5 40.2 42 -7.3 18.8
21:55 1011 29.85 841 24.83 4.4 40 41 -7.7 18.2
22:00 1011 29.85 841 24.83 4.5 40.2 40 -7.9 17.9
22:05 1011 29.85 841 24.83 4.7 40.5 40 -7.7 18.1
22:10 1011 29.85 841 24.83 4.7 40.5 40 -7.9 17.8
22:15 1011 29.85 841 24.83 4.9 40.9 39 -7.9 17.7
22:20 1011 29.85 840 24.81 5.1 41.1 39 -7.9 17.8
22:25 1011 29.85 840 24.81 5.2 41.3 38 -8.1 17.5
22:30 1011 29.85 840 24.81 5.3 41.5 38 -7.8 18
22:35 1011 29.85 840 24.81 5.2 41.4 39 -7.8 18
22:40 1011 29.85 840 24.81 5.2 41.3 39 -7.6 18.4
22:45 1011 29.85 840 24.81 5.1 41.2 39 -7.8 17.9
22:50 1011 29.85 840 24.81 5.1 41.2 39 -7.7 18.1
22:55 1011 29.85 840 24.81 5.2 41.3 39 -7.7 18.1
23:00 1011 29.85 840 24.81 5.1 41.2 39 -7.8 18
23:05 1011 29.85 840 24.81 5.2 41.3 38 -8.2 17.3
23:10 1011 29.85 840 24.81 5.4 41.7 38 -7.7 18.1
23:15 1011 29.85 840 24.81 5.3 41.6 38 -8 17.6
23:20 1011 29.85 840 24.81 5.3 41.6 38 -7.7 18.1
23:25 1011 29.85 840 24.81 5.2 41.4 39 -7.4 18.6
23:30 1011 29.85 840 24.81 5.2 41.3 40 -7.5 18.6
23:35 1011 29.85 840 24.81 5.1 41.1 40 -7.5 18.5
23:40 1011 29.85 840 24.81 5 41 40 -7.5 18.5
23:45 1011 29.85 840 24.81 5 41 40 -7.6 18.4
23:50 1011 29.85 840 24.81 4.9 40.9 40 -7.4 18.7
23:55 1011 29.85 840 24.81 4.9 40.8 41 -7.3 18.8
24:00 1011 29.85 840 24.81 4.8 40.6 44 -6.6 20.1